createdAt,value
2022-09-20T00:02:45.016Z,100.00
2022-09-20T00:05:48.044Z,100.00
2022-09-20T00:08:50.192Z,100.00
2022-09-20T00:11:52.906Z,100.00
2022-09-20T00:14:54.996Z,100.00
2022-09-20T00:17:57.557Z,100.00
2022-09-20T00:20:59.615Z,100.00
2022-09-20T00:24:02.473Z,100.00
2022-09-20T00:27:05.031Z,100.00
2022-09-20T00:30:08.541Z,100.00
2022-09-20T00:33:10.609Z,100.00
2022-09-20T00:36:13.356Z,100.00
2022-09-20T00:39:16.249Z,100.00
2022-09-20T00:42:18.594Z,100.00
2022-09-20T00:45:27.902Z,100.00
2022-09-20T00:48:33.057Z,99.98
2022-09-20T00:51:39.808Z,100.00
2022-09-20T00:54:42.452Z,98.99
2022-09-20T00:57:46.421Z,98.23
2022-09-20T01:00:51.708Z,97.07
2022-09-20T01:03:54.531Z,97.47
2022-09-20T01:07:01.128Z,97.02
2022-09-20T01:10:03.607Z,97.25
2022-09-20T01:13:06.058Z,96.63
2022-09-20T01:16:09.293Z,97.34
2022-09-20T01:19:50.579Z,96.46
2022-09-20T01:23:10.395Z,95.83
2022-09-20T01:26:19.930Z,97.54
2022-09-20T01:29:37.593Z,98.28
2022-09-20T01:32:52.181Z,99.45
2022-09-20T01:35:55.617Z,100.00
2022-09-20T01:39:36.915Z,100.00
2022-09-20T01:42:56.404Z,100.00
2022-09-20T01:46:05.450Z,100.00
2022-09-20T01:49:10.628Z,100.00
2022-09-20T01:52:41.219Z,100.00
2022-09-20T01:56:04.957Z,100.00
2022-09-20T01:59:24.359Z,100.00
2022-09-20T02:02:54.483Z,100.00
2022-09-20T02:06:26.362Z,100.00
2022-09-20T02:09:47.202Z,100.00
2022-09-20T02:13:04.267Z,99.64
2022-09-20T02:16:09.192Z,98.29
2022-09-20T02:19:27.611Z,98.90
2022-09-20T02:22:45.193Z,98.06
2022-09-20T02:26:05.309Z,96.75
2022-09-20T02:29:16.471Z,96.94
2022-09-20T02:32:24.901Z,96.99
2022-09-20T02:35:40.534Z,97.32
2022-09-20T02:39:15.879Z,96.51
2022-09-20T02:42:23.682Z,94.91
2022-09-20T02:45:40.194Z,94.47
2022-09-20T02:49:04.745Z,95.47
2022-09-20T02:52:44.416Z,95.75
2022-09-20T02:56:16.693Z,95.17
2022-09-20T02:59:40.500Z,94.70
2022-09-20T03:03:06.481Z,95.66
2022-09-20T03:06:30.323Z,95.48
2022-09-20T03:09:42.989Z,93.71
2022-09-20T03:13:10.249Z,93.90
2022-09-20T03:16:40.415Z,94.19
2022-09-20T03:19:56.883Z,93.77
2022-09-20T03:23:22.504Z,94.75
2022-09-20T03:26:27.829Z,93.39
2022-09-20T03:30:16.018Z,92.56
2022-09-20T03:33:21.060Z,92.09
2022-09-20T03:36:38.339Z,92.58
2022-09-20T03:39:49.523Z,92.46
2022-09-20T03:42:53.268Z,92.45
2022-09-20T03:46:17.546Z,92.83
2022-09-20T03:49:50.995Z,92.95
2022-09-20T03:53:26.775Z,93.31
2022-09-20T03:56:38.515Z,92.58
2022-09-20T03:59:54.160Z,92.74
2022-09-20T04:03:28.447Z,92.95
2022-09-20T04:06:42.932Z,92.86
2022-09-20T04:09:57.286Z,93.74
2022-09-20T04:13:24.545Z,94.34
2022-09-20T04:16:26.583Z,92.34
2022-09-20T04:19:45.557Z,92.02
2022-09-20T04:22:51.413Z,91.68
2022-09-20T04:25:54.049Z,92.76
2022-09-20T04:29:16.682Z,92.08
2022-09-20T04:32:21.969Z,91.58
2022-09-20T04:35:55.070Z,91.08
2022-09-20T04:39:23.968Z,91.01
2022-09-20T04:42:44.927Z,92.74
2022-09-20T04:46:14.365Z,93.01
2022-09-20T04:49:47.353Z,91.69
2022-09-20T04:53:28.558Z,91.77
2022-09-20T04:57:07.828Z,91.90
2022-09-20T05:00:19.019Z,92.26
2022-09-20T05:03:48.386Z,93.17
2022-09-20T05:07:30.253Z,94.11
2022-09-20T05:10:38.568Z,92.99
2022-09-20T05:14:19.432Z,93.41
2022-09-20T05:17:42.492Z,92.84
2022-09-20T05:21:29.470Z,92.73
2022-09-20T05:25:07.679Z,91.39
2022-09-20T05:28:15.938Z,91.61
2022-09-20T05:31:40.347Z,92.01
2022-09-20T05:35:00.827Z,91.12
2022-09-20T05:38:16.918Z,91.17
2022-09-20T05:41:23.699Z,89.97
2022-09-20T05:44:44.516Z,90.34
2022-09-20T05:47:57.158Z,90.06
2022-09-20T05:51:07.474Z,89.57
2022-09-20T05:54:25.359Z,89.13
2022-09-20T05:58:09.691Z,89.40
2022-09-20T06:01:20.003Z,89.43
2022-09-20T06:04:43.626Z,89.29
2022-09-20T06:07:51.997Z,89.95
2022-09-20T06:10:57.188Z,89.32
2022-09-20T06:14:28.107Z,88.20
2022-09-20T06:17:37.431Z,88.24
2022-09-20T06:20:48.717Z,86.83
2022-09-20T06:23:57.303Z,87.61
2022-09-20T06:27:04.934Z,86.91
2022-09-20T06:30:16.976Z,87.31
2022-09-20T06:33:25.475Z,86.90
2022-09-20T06:36:55.187Z,89.00
2022-09-20T06:40:35.300Z,87.97
2022-09-20T06:43:41.551Z,88.05
2022-09-20T06:46:43.827Z,86.17
2022-09-20T06:49:47.089Z,87.82
2022-09-20T06:52:50.036Z,88.87
2022-09-20T06:55:52.829Z,88.06
2022-09-20T06:58:55.037Z,86.92
2022-09-20T07:01:58.015Z,85.83
2022-09-20T07:05:00.362Z,83.91
2022-09-20T07:08:03.147Z,85.06
2022-09-20T07:11:13.856Z,85.25
2022-09-20T07:14:16.122Z,83.51
2022-09-20T07:17:18.109Z,84.58
2022-09-20T07:20:21.619Z,83.53
2022-09-20T07:23:23.979Z,81.66
2022-09-20T07:27:05.091Z,80.85
2022-09-20T07:30:08.340Z,80.92
2022-09-20T07:33:11.876Z,80.35
2022-09-20T07:36:14.060Z,82.04
2022-09-20T07:39:17.298Z,82.32
2022-09-20T07:42:19.359Z,81.59
2022-09-20T07:45:21.722Z,79.90
2022-09-20T07:48:25.948Z,79.27
2022-09-20T07:51:28.355Z,78.99
2022-09-20T07:54:30.487Z,76.27
2022-09-20T07:57:37.577Z,75.91
2022-09-20T08:00:39.634Z,74.97
2022-09-20T08:03:42.898Z,73.53
2022-09-20T08:06:46.284Z,71.18
2022-09-20T08:09:48.850Z,68.42
2022-09-20T08:16:14.321Z,63.34
2022-09-20T08:19:18.837Z,64.49
2022-09-20T08:22:22.055Z,64.12
2022-09-20T08:25:24.157Z,64.00
2022-09-20T08:28:26.462Z,62.08
2022-09-20T08:31:37.179Z,56.89
2022-09-20T08:34:40.616Z,55.35
2022-09-20T08:37:46.345Z,54.21
2022-09-20T08:40:49.471Z,53.95
2022-09-20T08:44:04.909Z,55.09
2022-09-20T08:47:18.147Z,57.56
2022-09-20T08:50:21.113Z,58.17
2022-09-20T08:53:23.517Z,58.84
2022-09-20T08:56:29.664Z,58.51
2022-09-20T08:59:32.763Z,58.07
2022-09-20T09:02:35.424Z,56.80
2022-09-20T09:05:44.624Z,57.42
2022-09-20T09:08:51.942Z,58.58
2022-09-20T09:11:56.326Z,61.92
2022-09-20T09:15:03.437Z,63.10
2022-09-20T09:18:09.115Z,63.28
2022-09-20T09:21:26.014Z,61.44
2022-09-20T09:24:31.360Z,62.29
2022-09-20T09:27:35.029Z,64.37
2022-09-20T09:30:39.449Z,64.57
2022-09-20T09:33:45.915Z,65.84
2022-09-20T09:36:48.298Z,65.08
2022-09-20T09:40:26.550Z,66.75
2022-09-20T09:43:35.592Z,64.96
2022-09-20T09:46:40.126Z,66.88
2022-09-20T09:50:00.797Z,66.27
2022-09-20T09:53:10.954Z,65.93
2022-09-20T09:56:17.439Z,67.33
2022-09-20T09:59:45.365Z,66.43
2022-09-20T10:03:09.060Z,64.84
2022-09-20T10:06:20.638Z,65.54
2022-09-20T10:09:51.942Z,65.90
2022-09-20T10:13:22.411Z,68.30
2022-09-20T10:16:49.388Z,67.22
2022-09-20T10:20:10.223Z,66.43
2022-09-20T10:23:51.574Z,62.71
2022-09-20T10:27:13.213Z,61.97
2022-09-20T10:30:20.713Z,61.42
2022-09-20T10:33:37.518Z,60.92
2022-09-20T10:36:49.535Z,61.48
2022-09-20T10:40:04.052Z,59.26
2022-09-20T10:43:23.575Z,59.63
2022-09-20T10:46:33.024Z,60.47
2022-09-20T10:49:53.890Z,59.11
2022-09-20T10:53:17.517Z,59.38
2022-09-20T10:56:31.136Z,58.82
2022-09-20T10:59:51.202Z,59.26
2022-09-20T11:03:27.249Z,59.02
2022-09-20T11:06:37.554Z,60.24
2022-09-20T11:09:50.574Z,57.54
2022-09-20T11:13:00.421Z,57.32
2022-09-20T11:16:14.117Z,58.14
2022-09-20T11:19:33.851Z,59.06
2022-09-20T11:23:06.260Z,60.66
2022-09-20T11:26:19.942Z,61.80
2022-09-20T11:29:35.763Z,61.70
2022-09-20T11:32:50.760Z,63.15
2022-09-20T11:35:58.041Z,67.80
2022-09-20T11:39:05.870Z,73.74
2022-09-20T11:42:16.113Z,76.42
2022-09-20T11:45:20.083Z,75.03
2022-09-20T11:48:29.431Z,78.73
2022-09-20T11:51:31.708Z,77.33
2022-09-20T11:54:55.648Z,74.60
2022-09-20T11:58:08.040Z,74.08
2022-09-20T12:01:13.242Z,74.25
2022-09-20T12:04:32.450Z,77.50
2022-09-20T12:07:39.679Z,76.67
2022-09-20T12:10:42.774Z,78.19
2022-09-20T12:14:00.912Z,77.53
2022-09-20T12:17:03.390Z,75.89
2022-09-20T12:20:34.646Z,70.61
2022-09-20T12:23:42.766Z,67.33
2022-09-20T12:26:45.894Z,68.54
2022-09-20T12:30:03.251Z,66.08
2022-09-20T12:33:20.415Z,65.92
2022-09-20T12:36:24.470Z,65.76
2022-09-20T12:39:34.748Z,66.92
2022-09-20T12:42:37.421Z,65.33
2022-09-20T12:45:39.600Z,64.28
2022-09-20T12:48:42.026Z,63.76
2022-09-20T12:52:09.856Z,64.00
2022-09-20T12:55:56.252Z,65.44
2022-09-20T12:59:00.313Z,58.94
2022-09-20T13:02:41.054Z,60.54
2022-09-20T13:05:47.823Z,58.54
2022-09-20T13:09:04.058Z,58.62
2022-09-20T13:12:06.367Z,59.68
2022-09-20T13:15:18.738Z,58.12
2022-09-20T13:18:22.928Z,59.06
2022-09-20T13:21:27.330Z,59.73
2022-09-20T13:24:45.040Z,59.87
2022-09-20T13:27:54.170Z,59.70
2022-09-20T13:31:21.009Z,58.51
2022-09-20T13:34:25.771Z,61.17
2022-09-20T13:37:27.842Z,60.22
2022-09-20T13:40:42.294Z,60.75
2022-09-20T13:43:46.629Z,62.57
2022-09-20T13:46:49.016Z,61.75
2022-09-20T13:49:51.305Z,61.67
2022-09-20T13:52:57.002Z,60.96
2022-09-20T13:55:59.393Z,59.28
2022-09-20T13:59:05.070Z,57.78
2022-09-20T14:02:19.446Z,56.19
2022-09-20T14:05:26.208Z,57.57
2022-09-20T14:08:48.521Z,55.98
2022-09-20T14:11:51.158Z,57.63
2022-09-20T14:14:54.351Z,56.59
2022-09-20T14:17:57.510Z,55.95
2022-09-20T14:21:00.398Z,55.27
2022-09-20T14:24:06.742Z,57.15
2022-09-20T14:27:20.582Z,56.94
2022-09-20T14:30:32.853Z,57.62
2022-09-20T14:33:41.475Z,57.61
2022-09-20T14:36:44.257Z,56.26
2022-09-20T14:39:53.838Z,57.60
2022-09-20T14:42:59.084Z,56.57
2022-09-20T14:46:08.664Z,56.13
2022-09-20T14:49:26.099Z,57.30
2022-09-20T14:52:28.434Z,54.98
2022-09-20T14:55:37.224Z,55.81
2022-09-20T14:59:16.918Z,55.37
2022-09-20T15:02:20.953Z,56.48
2022-09-20T15:05:28.026Z,56.81
2022-09-20T15:08:30.728Z,57.56
2022-09-20T15:11:32.809Z,56.69
2022-09-20T15:14:37.795Z,57.95
2022-09-20T15:17:42.091Z,56.90
2022-09-20T15:20:44.441Z,58.37
2022-09-20T15:23:46.504Z,60.01
2022-09-20T15:26:49.034Z,61.95
2022-09-20T15:29:51.145Z,62.64
2022-09-20T15:32:53.592Z,63.29
2022-09-20T15:35:55.638Z,63.75
2022-09-20T15:38:58.325Z,64.63
2022-09-20T15:42:00.471Z,63.45
2022-09-20T15:45:02.830Z,64.84
2022-09-20T15:48:04.934Z,65.55
2022-09-20T15:51:11.222Z,66.13
2022-09-20T15:54:14.710Z,65.62
2022-09-20T15:57:17.118Z,66.74
2022-09-20T16:00:19.751Z,68.37
2022-09-20T16:03:28.830Z,71.93
2022-09-20T16:06:32.209Z,75.49
2022-09-20T16:09:35.972Z,77.74
2022-09-20T16:12:38.069Z,79.39
2022-09-20T16:15:40.459Z,81.78
2022-09-20T16:19:01.190Z,82.80
2022-09-20T16:22:03.426Z,82.03
2022-09-20T16:25:06.006Z,82.88
2022-09-20T16:28:08.330Z,82.70
2022-09-20T16:31:32.661Z,82.64
2022-09-20T16:34:36.668Z,83.72
2022-09-20T16:37:39.361Z,82.34
2022-09-20T16:40:41.698Z,82.79
2022-09-20T16:43:43.746Z,82.47
2022-09-20T16:46:47.205Z,82.96
2022-09-20T16:49:50.482Z,85.58
2022-09-20T16:52:52.907Z,86.64
2022-09-20T16:55:58.695Z,85.52
2022-09-20T16:59:02.608Z,85.83
2022-09-20T17:02:04.744Z,84.42
2022-09-20T17:05:08.208Z,86.23
2022-09-20T17:08:10.883Z,86.20
2022-09-20T17:11:16.035Z,86.84
2022-09-20T17:14:20.341Z,85.23
2022-09-20T17:17:22.805Z,86.09
2022-09-20T17:20:27.138Z,84.88
2022-09-20T17:23:29.466Z,85.77
2022-09-20T17:26:44.336Z,87.41
2022-09-20T17:29:47.510Z,86.98
2022-09-20T17:32:50.733Z,89.66
2022-09-20T17:35:53.141Z,90.37
2022-09-20T17:39:00.492Z,90.64
2022-09-20T17:42:06.471Z,92.17
2022-09-20T17:45:09.099Z,91.52
2022-09-20T17:48:11.419Z,94.71
2022-09-20T17:51:13.474Z,94.17
2022-09-20T17:54:16.323Z,94.05
2022-09-20T17:57:18.369Z,90.42
2022-09-20T18:00:20.699Z,86.79
2022-09-20T18:03:24.012Z,84.95
2022-09-20T18:06:28.663Z,85.09
2022-09-20T18:09:31.015Z,85.49
2022-09-20T18:12:33.183Z,84.88
2022-09-20T18:15:35.525Z,85.54
2022-09-20T18:18:39.728Z,85.82
2022-09-20T18:21:42.343Z,85.03
2022-09-20T18:24:44.409Z,85.05
2022-09-20T18:27:47.590Z,85.38
2022-09-20T18:31:00.750Z,85.90
2022-09-20T18:34:06.484Z,85.83
2022-09-20T18:37:13.848Z,86.54
2022-09-20T18:40:17.088Z,86.78
2022-09-20T18:43:19.174Z,87.61
2022-09-20T18:46:27.051Z,87.13
2022-09-20T18:49:30.245Z,87.88
2022-09-20T18:52:32.574Z,89.07
2022-09-20T18:55:35.558Z,89.33
2022-09-20T18:58:39.896Z,90.14
2022-09-20T19:01:54.210Z,88.66
2022-09-20T19:05:24.986Z,88.53
2022-09-20T19:08:40.727Z,89.11
2022-09-20T19:11:50.856Z,86.57
2022-09-20T19:15:02.178Z,85.80
2022-09-20T19:18:27.003Z,83.15
2022-09-20T19:21:53.861Z,83.14
2022-09-20T19:25:03.309Z,82.28
2022-09-20T19:28:05.536Z,82.62
2022-09-20T19:31:23.013Z,83.94
2022-09-20T19:34:27.810Z,84.42
2022-09-20T19:37:52.020Z,85.07
2022-09-20T19:41:21.184Z,86.89
2022-09-20T19:44:32.681Z,89.40
2022-09-20T19:48:00.608Z,88.36
2022-09-20T19:51:07.974Z,84.24
2022-09-20T19:54:12.401Z,83.93
2022-09-20T19:57:18.422Z,84.11
2022-09-20T20:00:21.511Z,83.34
2022-09-20T20:03:26.166Z,83.56
2022-09-20T20:06:40.447Z,83.86
2022-09-20T20:09:55.654Z,84.69
2022-09-20T20:13:04.147Z,84.40
2022-09-20T20:16:14.355Z,84.16
2022-09-20T20:19:31.737Z,83.02
2022-09-20T20:22:49.212Z,83.45
2022-09-20T20:26:08.617Z,82.46
2022-09-20T20:29:11.921Z,82.97
2022-09-20T20:32:15.062Z,81.38
2022-09-20T20:35:17.568Z,82.33
2022-09-20T20:38:19.915Z,82.72
2022-09-20T20:41:23.578Z,82.58
2022-09-20T20:44:25.998Z,82.77
2022-09-20T20:47:28.322Z,82.65
2022-09-20T20:50:30.462Z,83.64
2022-09-20T20:53:34.966Z,82.44
2022-09-20T20:56:37.059Z,82.22
2022-09-20T20:59:39.377Z,81.59
2022-09-20T21:02:41.499Z,82.55
2022-09-20T21:05:44.703Z,82.33
2022-09-20T21:08:49.598Z,82.33
2022-09-20T21:11:52.620Z,83.06
2022-09-20T21:14:54.800Z,82.81
2022-09-20T21:17:57.143Z,83.73
2022-09-20T21:20:59.726Z,83.51
2022-09-20T21:24:04.547Z,83.85
2022-09-20T21:27:06.735Z,84.86
2022-09-20T21:30:09.448Z,85.62
2022-09-20T21:33:11.529Z,84.99
2022-09-20T21:36:18.584Z,85.59
2022-09-20T21:39:20.732Z,85.17
2022-09-20T21:42:23.312Z,85.61
2022-09-20T21:45:27.282Z,85.46
2022-09-20T21:48:29.815Z,85.68
2022-09-20T21:51:33.096Z,86.22
2022-09-20T21:54:35.464Z,87.92
2022-09-20T21:57:37.812Z,87.92
2022-09-20T22:00:40.182Z,88.88
2022-09-20T22:03:51.861Z,88.51
2022-09-20T22:06:53.909Z,90.57
2022-09-20T22:09:56.252Z,90.36
2022-09-20T22:12:58.370Z,90.26
2022-09-20T22:16:05.742Z,89.26
2022-09-20T22:19:10.689Z,90.18
2022-09-20T22:22:13.040Z,90.60
2022-09-20T22:25:15.135Z,90.40
2022-09-20T22:28:17.455Z,90.62
2022-09-20T22:31:24.769Z,91.29
2022-09-20T22:34:27.106Z,91.55
2022-09-20T22:37:29.239Z,91.19
2022-09-20T22:40:31.584Z,91.06
2022-09-20T22:43:34.641Z,91.39
2022-09-20T22:46:38.144Z,91.31
2022-09-20T22:49:40.210Z,90.32
2022-09-20T22:52:42.542Z,91.23
2022-09-20T22:55:44.631Z,90.93
2022-09-20T22:58:52.057Z,91.22
2022-09-20T23:01:54.119Z,90.17
2022-09-20T23:04:56.478Z,90.14
2022-09-20T23:07:58.543Z,90.54
2022-09-20T23:11:03.388Z,90.36
2022-09-20T23:14:06.036Z,90.37
2022-09-20T23:17:08.394Z,91.04
2022-09-20T23:20:10.478Z,89.82
2022-09-20T23:23:13.257Z,91.14
2022-09-20T23:26:17.241Z,90.66
2022-09-20T23:29:19.566Z,91.16
2022-09-20T23:32:21.670Z,91.64
2022-09-20T23:35:23.992Z,91.63
2022-09-20T23:38:26.439Z,92.55
2022-09-20T23:41:28.931Z,92.56
2022-09-20T23:44:31.007Z,93.57
2022-09-20T23:47:33.439Z,92.78
2022-09-20T23:50:35.530Z,93.71
2022-09-20T23:53:38.238Z,92.92
2022-09-20T23:56:41.633Z,92.38
2022-09-20T23:59:43.995Z,91.81
